sensor_id;sensor_type;location;lat;lon;timestamp;pressure;altitude;pressure_sealevel;temperature;humidity
55301;BME280;58302;51.446;-2.000;2022-12-07T00:01:12;101644.63;;;-2.18;100.00
55301;BME280;58302;51.446;-2.000;2022-12-07T00:03:40;101646.75;;;-2.21;100.00
55301;BME280;58302;51.446;-2.000;2022-12-07T00:06:08;101658.09;;;-2.19;100.00
55301;BME280;58302;51.446;-2.000;2022-12-07T00:08:35;101640.53;;;-2.12;100.00
55301;BME280;58302;51.446;-2.000;2022-12-07T00:11:05;101647.34;;;-1.92;100.00
55301;BME280;58302;51.446;-2.000;2022-12-07T00:13:33;101648.25;;;-1.83;100.00
55301;BME280;58302;51.446;-2.000;2022-12-07T00:16:04;101646.31;;;-1.73;100.00
55301;BME280;58302;51.446;-2.000;2022-12-07T00:18:30;101646.88;;;-1.69;100.00
55301;BME280;58302;51.446;-2.000;2022-12-07T00:21:01;101636.31;;;-1.53;100.00
55301;BME280;58302;51.446;-2.000;2022-12-07T00:23:27;101641.47;;;-1.25;100.00
55301;BME280;58302;51.446;-2.000;2022-12-07T00:25:53;101634.50;;;-1.18;100.00
55301;BME280;58302;51.446;-2.000;2022-12-07T00:28:18;101630.56;;;-1.06;100.00
55301;BME280;58302;51.446;-2.000;2022-12-07T00:30:44;101624.06;;;-1.03;100.00
55301;BME280;58302;51.446;-2.000;2022-12-07T00:33:10;101622.25;;;-1.03;100.00
55301;BME280;58302;51.446;-2.000;2022-12-07T00:35:36;101626.03;;;-1.06;100.00
55301;BME280;58302;51.446;-2.000;2022-12-07T00:38:02;101620.69;;;-1.14;100.00
55301;BME280;58302;51.446;-2.000;2022-12-07T00:40:28;101619.97;;;-1.24;100.00
55301;BME280;58302;51.446;-2.000;2022-12-07T00:42:54;101615.28;;;-1.30;100.00
55301;BME280;58302;51.446;-2.000;2022-12-07T00:45:20;101613.09;;;-1.35;100.00
55301;BME280;58302;51.446;-2.000;2022-12-07T00:47:46;101618.88;;;-1.39;100.00
55301;BME280;58302;51.446;-2.000;2022-12-07T00:50:12;101616.31;;;-1.49;100.00
55301;BME280;58302;51.446;-2.000;2022-12-07T00:52:38;101627.22;;;-1.68;100.00
55301;BME280;58302;51.446;-2.000;2022-12-07T00:55:04;101625.44;;;-1.86;100.00
55301;BME280;58302;51.446;-2.000;2022-12-07T00:57:30;101618.34;;;-1.95;100.00
55301;BME280;58302;51.446;-2.000;2022-12-07T00:59:56;101611.97;;;-2.02;100.00
55301;BME280;58302;51.446;-2.000;2022-12-07T01:02:23;101612.22;;;-2.13;100.00
55301;BME280;58302;51.446;-2.000;2022-12-07T01:04:49;101614.41;;;-2.26;100.00
55301;BME280;58302;51.446;-2.000;2022-12-07T01:07:15;101614.34;;;-2.34;100.00
55301;BME280;58302;51.446;-2.000;2022-12-07T01:09:41;101612.16;;;-2.39;100.00
55301;BME280;58302;51.446;-2.000;2022-12-07T01:12:07;101614.59;;;-2.46;100.00
55301;BME280;58302;51.446;-2.000;2022-12-07T01:14:33;101599.34;;;-2.53;100.00
55301;BME280;58302;51.446;-2.000;2022-12-07T01:16:59;101604.78;;;-2.63;100.00
55301;BME280;58302;51.446;-2.000;2022-12-07T01:19:25;101603.84;;;-2.72;100.00
55301;BME280;58302;51.446;-2.000;2022-12-07T01:21:50;101598.06;;;-2.85;100.00
55301;BME280;58302;51.446;-2.000;2022-12-07T01:24:16;101604.25;;;-2.94;100.00
55301;BME280;58302;51.446;-2.000;2022-12-07T01:26:42;101600.38;;;-3.00;100.00
55301;BME280;58302;51.446;-2.000;2022-12-07T01:29:08;101597.03;;;-3.02;100.00
55301;BME280;58302;51.446;-2.000;2022-12-07T01:31:34;101599.41;;;-3.08;100.00
55301;BME280;58302;51.446;-2.000;2022-12-07T01:34:00;101590.22;;;-3.14;100.00
55301;BME280;58302;51.446;-2.000;2022-12-07T01:36:29;101598.97;;;-3.04;100.00
55301;BME280;58302;51.446;-2.000;2022-12-07T01:38:58;101596.03;;;-3.01;100.00
55301;BME280;58302;51.446;-2.000;2022-12-07T01:41:27;101593.66;;;-3.04;100.00
55301;BME280;58302;51.446;-2.000;2022-12-07T01:46:38;101587.47;;;-3.22;100.00
55301;BME280;58302;51.446;-2.000;2022-12-07T01:49:06;101590.13;;;-3.22;100.00
55301;BME280;58302;51.446;-2.000;2022-12-07T01:51:34;101586.47;;;-3.21;100.00
55301;BME280;58302;51.446;-2.000;2022-12-07T01:54:00;101588.47;;;-3.23;100.00
55301;BME280;58302;51.446;-2.000;2022-12-07T01:56:28;101593.38;;;-3.28;100.00
55301;BME280;58302;51.446;-2.000;2022-12-07T01:58:55;101588.50;;;-3.33;100.00
55301;BME280;58302;51.446;-2.000;2022-12-07T02:01:22;101597.22;;;-3.40;100.00
55301;BME280;58302;51.446;-2.000;2022-12-07T02:03:48;101598.63;;;-3.46;100.00
55301;BME280;58302;51.446;-2.000;2022-12-07T02:06:19;101601.84;;;-3.52;100.00
55301;BME280;58302;51.446;-2.000;2022-12-07T02:08:46;101604.97;;;-3.57;100.00
55301;BME280;58302;51.446;-2.000;2022-12-07T02:11:12;101604.97;;;-3.57;100.00
55301;BME280;58302;51.446;-2.000;2022-12-07T02:13:40;101604.41;;;-3.60;100.00
55301;BME280;58302;51.446;-2.000;2022-12-07T02:27:13;101602.34;;;-3.76;100.00
55301;BME280;58302;51.446;-2.000;2022-12-07T02:35:40;101590.06;;;-3.77;100.00
55301;BME280;58302;51.446;-2.000;2022-12-07T02:41:12;101597.78;;;-3.93;100.00
55301;BME280;58302;51.446;-2.000;2022-12-07T02:43:45;101595.13;;;-3.93;100.00
55301;BME280;58302;51.446;-2.000;2022-12-07T02:46:17;101588.53;;;-3.89;100.00
55301;BME280;58302;51.446;-2.000;2022-12-07T02:48:45;101592.72;;;-3.77;100.00
55301;BME280;58302;51.446;-2.000;2022-12-07T02:51:11;101591.44;;;-3.73;100.00
55301;BME280;58302;51.446;-2.000;2022-12-07T02:53:39;101584.75;;;-3.77;100.00
55301;BME280;58302;51.446;-2.000;2022-12-07T02:56:30;101593.28;;;-3.83;100.00
55301;BME280;58302;51.446;-2.000;2022-12-07T03:04:53;101584.38;;;-4.11;100.00
55301;BME280;58302;51.446;-2.000;2022-12-07T03:07:42;101587.88;;;-4.11;100.00
55301;BME280;58302;51.446;-2.000;2022-12-07T03:15:31;101586.31;;;-4.23;100.00
55301;BME280;58302;51.446;-2.000;2022-12-07T03:17:59;101582.41;;;-4.29;100.00
55301;BME280;58302;51.446;-2.000;2022-12-07T03:20:27;101583.97;;;-4.26;100.00
55301;BME280;58302;51.446;-2.000;2022-12-07T03:22:54;101577.13;;;-4.29;100.00
55301;BME280;58302;51.446;-2.000;2022-12-07T03:25:22;101580.75;;;-4.30;100.00
55301;BME280;58302;51.446;-2.000;2022-12-07T03:27:55;101585.78;;;-4.36;100.00
55301;BME280;58302;51.446;-2.000;2022-12-07T03:30:27;101575.03;;;-4.35;100.00
55301;BME280;58302;51.446;-2.000;2022-12-07T03:35:32;101576.72;;;-4.34;100.00
55301;BME280;58302;51.446;-2.000;2022-12-07T03:38:16;101575.47;;;-4.39;100.00
55301;BME280;58302;51.446;-2.000;2022-12-07T03:43:21;101576.44;;;-4.31;100.00
55301;BME280;58302;51.446;-2.000;2022-12-07T03:46:37;101572.22;;;-4.24;100.00
55301;BME280;58302;51.446;-2.000;2022-12-07T03:49:17;101564.72;;;-4.28;100.00
55301;BME280;58302;51.446;-2.000;2022-12-07T03:52:22;101563.88;;;-4.38;100.00
55301;BME280;58302;51.446;-2.000;2022-12-07T03:55:00;101568.06;;;-4.45;100.00
55301;BME280;58302;51.446;-2.000;2022-12-07T03:57:29;101571.97;;;-4.40;100.00
55301;BME280;58302;51.446;-2.000;2022-12-07T03:59:57;101576.59;;;-4.32;100.00
55301;BME280;58302;51.446;-2.000;2022-12-07T04:02:25;101566.22;;;-4.35;100.00
55301;BME280;58302;51.446;-2.000;2022-12-07T04:04:52;101567.63;;;-4.41;100.00
55301;BME280;58302;51.446;-2.000;2022-12-07T04:07:18;101560.38;;;-4.48;100.00
55301;BME280;58302;51.446;-2.000;2022-12-07T04:09:44;101558.41;;;-4.56;100.00
55301;BME280;58302;51.446;-2.000;2022-12-07T04:12:10;101563.88;;;-4.58;100.00
55301;BME280;58302;51.446;-2.000;2022-12-07T04:14:36;101562.88;;;-4.57;100.00
55301;BME280;58302;51.446;-2.000;2022-12-07T04:17:02;101556.34;;;-4.53;100.00
55301;BME280;58302;51.446;-2.000;2022-12-07T04:19:31;101562.22;;;-4.39;100.00
55301;BME280;58302;51.446;-2.000;2022-12-07T04:21:58;101557.03;;;-4.41;100.00
55301;BME280;58302;51.446;-2.000;2022-12-07T04:24:25;101564.97;;;-4.51;100.00
55301;BME280;58302;51.446;-2.000;2022-12-07T04:26:51;101561.94;;;-4.56;100.00
55301;BME280;58302;51.446;-2.000;2022-12-07T04:29:17;101556.75;;;-4.57;100.00
55301;BME280;58302;51.446;-2.000;2022-12-07T04:31:44;101564.28;;;-4.62;100.00
55301;BME280;58302;51.446;-2.000;2022-12-07T04:34:11;101556.06;;;-4.59;100.00
55301;BME280;58302;51.446;-2.000;2022-12-07T04:36:38;101552.56;;;-4.60;100.00
55301;BME280;58302;51.446;-2.000;2022-12-07T04:39:05;101543.91;;;-4.62;100.00
55301;BME280;58302;51.446;-2.000;2022-12-07T04:41:31;101552.56;;;-4.69;100.00
55301;BME280;58302;51.446;-2.000;2022-12-07T04:44:01;101542.66;;;-4.77;100.00
55301;BME280;58302;51.446;-2.000;2022-12-07T04:46:29;101543.06;;;-4.82;100.00
55301;BME280;58302;51.446;-2.000;2022-12-07T04:48:56;101548.38;;;-4.82;100.00
55301;BME280;58302;51.446;-2.000;2022-12-07T04:51:24;101547.66;;;-4.84;100.00
55301;BME280;58302;51.446;-2.000;2022-12-07T04:53:51;101553.38;;;-4.79;100.00
55301;BME280;58302;51.446;-2.000;2022-12-07T04:56:18;101544.19;;;-4.65;100.00
55301;BME280;58302;51.446;-2.000;2022-12-07T04:58:45;101540.41;;;-4.53;100.00
55301;BME280;58302;51.446;-2.000;2022-12-07T05:01:13;101548.66;;;-4.36;100.00
55301;BME280;58302;51.446;-2.000;2022-12-07T05:03:39;101554.06;;;-4.18;100.00
55301;BME280;58302;51.446;-2.000;2022-12-07T05:06:06;101550.97;;;-4.04;100.00
55301;BME280;58302;51.446;-2.000;2022-12-07T05:08:33;101557.09;;;-3.84;100.00
55301;BME280;58302;51.446;-2.000;2022-12-07T05:10:59;101549.72;;;-3.63;100.00
55301;BME280;58302;51.446;-2.000;2022-12-07T05:13:26;101548.28;;;-3.48;100.00
55301;BME280;58302;51.446;-2.000;2022-12-07T05:15:52;101555.78;;;-3.33;100.00
55301;BME280;58302;51.446;-2.000;2022-12-07T05:18:18;101552.09;;;-3.23;100.00
55301;BME280;58302;51.446;-2.000;2022-12-07T05:20:44;101548.00;;;-3.17;100.00
55301;BME280;58302;51.446;-2.000;2022-12-07T05:23:10;101544.19;;;-3.14;100.00
55301;BME280;58302;51.446;-2.000;2022-12-07T05:25:37;101549.06;;;-3.10;100.00
55301;BME280;58302;51.446;-2.000;2022-12-07T05:28:04;101547.78;;;-3.06;100.00
55301;BME280;58302;51.446;-2.000;2022-12-07T05:30:31;101541.88;;;-3.00;100.00
55301;BME280;58302;51.446;-2.000;2022-12-07T05:32:57;101551.63;;;-2.90;100.00
55301;BME280;58302;51.446;-2.000;2022-12-07T05:35:23;101552.00;;;-2.85;100.00
55301;BME280;58302;51.446;-2.000;2022-12-07T05:37:49;101549.19;;;-2.84;100.00
55301;BME280;58302;51.446;-2.000;2022-12-07T05:40:16;101546.19;;;-2.81;100.00
55301;BME280;58302;51.446;-2.000;2022-12-07T05:42:42;101551.06;;;-2.76;100.00
55301;BME280;58302;51.446;-2.000;2022-12-07T05:45:09;101552.22;;;-2.79;100.00
55301;BME280;58302;51.446;-2.000;2022-12-07T05:47:35;101549.25;;;-2.76;100.00
55301;BME280;58302;51.446;-2.000;2022-12-07T05:50:02;101541.97;;;-2.74;100.00
55301;BME280;58302;51.446;-2.000;2022-12-07T05:52:28;101550.19;;;-2.67;100.00
55301;BME280;58302;51.446;-2.000;2022-12-07T05:54:54;101543.25;;;-2.60;100.00
55301;BME280;58302;51.446;-2.000;2022-12-07T05:57:20;101541.59;;;-2.61;100.00
55301;BME280;58302;51.446;-2.000;2022-12-07T05:59:46;101541.03;;;-2.65;100.00
55301;BME280;58302;51.446;-2.000;2022-12-07T06:02:14;101542.47;;;-2.70;100.00
55301;BME280;58302;51.446;-2.000;2022-12-07T06:04:43;101538.47;;;-2.74;100.00
55301;BME280;58302;51.446;-2.000;2022-12-07T06:07:10;101535.44;;;-2.79;100.00
55301;BME280;58302;51.446;-2.000;2022-12-07T06:09:36;101533.66;;;-2.88;100.00
55301;BME280;58302;51.446;-2.000;2022-12-07T06:12:03;101529.63;;;-2.93;100.00
55301;BME280;58302;51.446;-2.000;2022-12-07T06:14:48;101527.50;;;-3.07;100.00
55301;BME280;58302;51.446;-2.000;2022-12-07T06:17:14;101531.22;;;-3.17;100.00
55301;BME280;58302;51.446;-2.000;2022-12-07T06:19:41;101538.69;;;-3.31;100.00
55301;BME280;58302;51.446;-2.000;2022-12-07T06:22:07;101533.56;;;-3.42;100.00
55301;BME280;58302;51.446;-2.000;2022-12-07T06:24:35;101544.09;;;-3.50;100.00
55301;BME280;58302;51.446;-2.000;2022-12-07T06:27:01;101541.19;;;-3.57;100.00
55301;BME280;58302;51.446;-2.000;2022-12-07T06:29:27;101538.56;;;-3.66;100.00
55301;BME280;58302;51.446;-2.000;2022-12-07T06:31:53;101539.28;;;-3.74;100.00
55301;BME280;58302;51.446;-2.000;2022-12-07T06:34:20;101532.88;;;-3.81;100.00
55301;BME280;58302;51.446;-2.000;2022-12-07T06:36:49;101542.28;;;-3.87;100.00
55301;BME280;58302;51.446;-2.000;2022-12-07T06:39:18;101535.28;;;-3.88;100.00
55301;BME280;58302;51.446;-2.000;2022-12-07T06:41:44;101536.84;;;-3.95;100.00
55301;BME280;58302;51.446;-2.000;2022-12-07T06:44:10;101538.53;;;-4.04;100.00
55301;BME280;58302;51.446;-2.000;2022-12-07T06:46:36;101534.22;;;-4.14;100.00
55301;BME280;58302;51.446;-2.000;2022-12-07T06:49:04;101544.16;;;-4.26;100.00
55301;BME280;58302;51.446;-2.000;2022-12-07T06:51:31;101541.38;;;-4.34;100.00
55301;BME280;58302;51.446;-2.000;2022-12-07T06:53:57;101536.94;;;-4.43;100.00
55301;BME280;58302;51.446;-2.000;2022-12-07T06:56:23;101538.19;;;-4.47;100.00
55301;BME280;58302;51.446;-2.000;2022-12-07T06:58:49;101530.38;;;-4.49;100.00
55301;BME280;58302;51.446;-2.000;2022-12-07T07:01:17;101537.50;;;-4.49;100.00
55301;BME280;58302;51.446;-2.000;2022-12-07T07:03:45;101537.75;;;-4.43;100.00
55301;BME280;58302;51.446;-2.000;2022-12-07T07:06:12;101537.19;;;-4.46;100.00
55301;BME280;58302;51.446;-2.000;2022-12-07T07:08:39;101541.09;;;-4.51;100.00
55301;BME280;58302;51.446;-2.000;2022-12-07T07:11:06;101533.03;;;-4.59;100.00
55301;BME280;58302;51.446;-2.000;2022-12-07T07:13:33;101531.91;;;-4.66;100.00
55301;BME280;58302;51.446;-2.000;2022-12-07T07:15:59;101532.31;;;-4.70;100.00
55301;BME280;58302;51.446;-2.000;2022-12-07T07:18:25;101539.72;;;-4.74;100.00
55301;BME280;58302;51.446;-2.000;2022-12-07T07:20:52;101534.84;;;-4.69;100.00
55301;BME280;58302;51.446;-2.000;2022-12-07T07:23:19;101531.06;;;-4.57;100.00
55301;BME280;58302;51.446;-2.000;2022-12-07T07:25:45;101535.94;;;-4.42;100.00
55301;BME280;58302;51.446;-2.000;2022-12-07T07:28:11;101535.78;;;-4.31;100.00
55301;BME280;58302;51.446;-2.000;2022-12-07T07:30:37;101535.66;;;-4.30;100.00
55301;BME280;58302;51.446;-2.000;2022-12-07T07:33:04;101541.78;;;-4.29;100.00
55301;BME280;58302;51.446;-2.000;2022-12-07T07:35:31;101551.31;;;-4.36;100.00
55301;BME280;58302;51.446;-2.000;2022-12-07T07:37:58;101541.25;;;-4.42;100.00
55301;BME280;58302;51.446;-2.000;2022-12-07T07:40:24;101545.03;;;-4.55;100.00
55301;BME280;58302;51.446;-2.000;2022-12-07T07:42:52;101548.94;;;-4.59;100.00
55301;BME280;58302;51.446;-2.000;2022-12-07T07:45:19;101550.75;;;-4.59;100.00
55301;BME280;58302;51.446;-2.000;2022-12-07T07:47:46;101540.00;;;-4.58;100.00
55301;BME280;58302;51.446;-2.000;2022-12-07T07:50:12;101543.47;;;-4.57;100.00
55301;BME280;58302;51.446;-2.000;2022-12-07T07:52:38;101546.97;;;-4.57;100.00
55301;BME280;58302;51.446;-2.000;2022-12-07T07:55:04;101539.31;;;-4.60;100.00
55301;BME280;58302;51.446;-2.000;2022-12-07T07:57:30;101540.84;;;-4.67;100.00
55301;BME280;58302;51.446;-2.000;2022-12-07T07:59:56;101538.19;;;-4.77;100.00
55301;BME280;58302;51.446;-2.000;2022-12-07T08:02:22;101540.41;;;-4.82;100.00
55301;BME280;58302;51.446;-2.000;2022-12-07T08:04:49;101544.31;;;-4.76;100.00
55301;BME280;58302;51.446;-2.000;2022-12-07T08:07:15;101549.50;;;-4.65;100.00
55301;BME280;58302;51.446;-2.000;2022-12-07T08:09:41;101548.66;;;-4.65;100.00
55301;BME280;58302;51.446;-2.000;2022-12-07T08:12:07;101557.72;;;-4.68;100.00
55301;BME280;58302;51.446;-2.000;2022-12-07T08:14:33;101551.16;;;-4.64;100.00
55301;BME280;58302;51.446;-2.000;2022-12-07T08:17:00;101552.84;;;-4.63;100.00
55301;BME280;58302;51.446;-2.000;2022-12-07T08:19:26;101552.00;;;-4.63;100.00
55301;BME280;58302;51.446;-2.000;2022-12-07T08:21:52;101558.13;;;-4.63;100.00
55301;BME280;58302;51.446;-2.000;2022-12-07T08:24:18;101557.88;;;-4.60;100.00
55301;BME280;58302;51.446;-2.000;2022-12-07T08:26:44;101564.03;;;-4.49;100.00
55301;BME280;58302;51.446;-2.000;2022-12-07T08:29:10;101559.53;;;-4.30;100.00
55301;BME280;58302;51.446;-2.000;2022-12-07T08:31:36;101554.22;;;-4.10;100.00
55301;BME280;58302;51.446;-2.000;2022-12-07T08:34:02;101566.19;;;-3.97;100.00
55301;BME280;58302;51.446;-2.000;2022-12-07T08:36:28;101565.91;;;-3.93;100.00
55301;BME280;58302;51.446;-2.000;2022-12-07T08:38:54;101563.94;;;-3.91;100.00
55301;BME280;58302;51.446;-2.000;2022-12-07T08:41:20;101563.09;;;-3.82;100.00
55301;BME280;58302;51.446;-2.000;2022-12-07T08:43:46;101558.44;;;-3.71;100.00
55301;BME280;58302;51.446;-2.000;2022-12-07T08:49:03;101558.09;;;-3.58;100.00
55301;BME280;58302;51.446;-2.000;2022-12-07T08:51:30;101548.19;;;-3.56;100.00
55301;BME280;58302;51.446;-2.000;2022-12-07T08:53:58;101552.94;;;-3.59;100.00
55301;BME280;58302;51.446;-2.000;2022-12-07T08:56:26;101554.09;;;-3.62;100.00
55301;BME280;58302;51.446;-2.000;2022-12-07T08:58:53;101557.97;;;-3.56;100.00
55301;BME280;58302;51.446;-2.000;2022-12-07T09:01:19;101554.31;;;-3.55;100.00
55301;BME280;58302;51.446;-2.000;2022-12-07T09:03:44;101550.41;;;-3.51;100.00
55301;BME280;58302;51.446;-2.000;2022-12-07T09:06:10;101552.03;;;-3.40;100.00
55301;BME280;58302;51.446;-2.000;2022-12-07T09:08:41;101550.69;;;-3.27;100.00
55301;BME280;58302;51.446;-2.000;2022-12-07T09:11:08;101556.97;;;-3.18;100.00
55301;BME280;58302;51.446;-2.000;2022-12-07T09:13:34;101544.34;;;-3.16;100.00
55301;BME280;58302;51.446;-2.000;2022-12-07T09:16:00;101548.22;;;-3.10;100.00
55301;BME280;58302;51.446;-2.000;2022-12-07T09:18:26;101547.06;;;-3.08;100.00
55301;BME280;58302;51.446;-2.000;2022-12-07T09:20:52;101549.00;;;-3.00;100.00
55301;BME280;58302;51.446;-2.000;2022-12-07T09:23:18;101546.91;;;-2.97;100.00
55301;BME280;58302;51.446;-2.000;2022-12-07T09:25:44;101546.56;;;-2.94;100.00
55301;BME280;58302;51.446;-2.000;2022-12-07T09:28:10;101555.84;;;-2.98;100.00
55301;BME280;58302;51.446;-2.000;2022-12-07T09:30:36;101551.28;;;-3.05;100.00
55301;BME280;58302;51.446;-2.000;2022-12-07T09:33:02;101547.56;;;-3.12;100.00
55301;BME280;58302;51.446;-2.000;2022-12-07T09:35:29;101549.66;;;-3.16;100.00
55301;BME280;58302;51.446;-2.000;2022-12-07T09:37:55;101556.97;;;-3.18;100.00
55301;BME280;58302;51.446;-2.000;2022-12-07T09:40:22;101551.16;;;-3.13;100.00
55301;BME280;58302;51.446;-2.000;2022-12-07T09:42:51;101549.06;;;-3.10;100.00
55301;BME280;58302;51.446;-2.000;2022-12-07T09:45:34;101552.66;;;-3.01;100.00
55301;BME280;58302;51.446;-2.000;2022-12-07T09:48:03;101553.72;;;-2.94;100.00
55301;BME280;58302;51.446;-2.000;2022-12-07T09:50:29;101557.88;;;-2.92;100.00
55301;BME280;58302;51.446;-2.000;2022-12-07T09:53:14;101556.94;;;-2.90;100.00
55301;BME280;58302;51.446;-2.000;2022-12-07T09:55:41;101553.06;;;-2.78;100.00
55301;BME280;58302;51.446;-2.000;2022-12-07T09:58:19;101561.94;;;-2.34;100.00
55301;BME280;58302;51.446;-2.000;2022-12-07T10:00:46;101563.25;;;-1.68;100.00
55301;BME280;58302;51.446;-2.000;2022-12-07T10:03:12;101554.03;;;-1.06;100.00
55301;BME280;58302;51.446;-2.000;2022-12-07T10:05:42;101560.00;;;-0.53;100.00
55301;BME280;58302;51.446;-2.000;2022-12-07T10:08:11;101557.31;;;-0.29;100.00
55301;BME280;58302;51.446;-2.000;2022-12-07T10:10:38;101557.00;;;-0.09;100.00
55301;BME280;58302;51.446;-2.000;2022-12-07T10:13:13;101540.41;;;0.28;100.00
55301;BME280;58302;51.446;-2.000;2022-12-07T10:15:47;101548.94;;;0.71;100.00
55301;BME280;58302;51.446;-2.000;2022-12-07T10:23:28;101543.13;;;1.29;100.00
55301;BME280;58302;51.446;-2.000;2022-12-07T10:25:54;101530.69;;;1.60;100.00
55301;BME280;58302;51.446;-2.000;2022-12-07T10:28:21;101531.53;;;2.13;100.00
55301;BME280;58302;51.446;-2.000;2022-12-07T10:36:16;101518.84;;;3.81;100.00
55301;BME280;58302;51.446;-2.000;2022-12-07T10:39:02;101522.97;;;4.39;100.00
55301;BME280;58302;51.446;-2.000;2022-12-07T10:41:29;101516.56;;;4.82;100.00
55301;BME280;58302;51.446;-2.000;2022-12-07T10:43:57;101505.28;;;5.19;100.00
55301;BME280;58302;51.446;-2.000;2022-12-07T10:49:28;101501.41;;;5.81;100.00
55301;BME280;58302;51.446;-2.000;2022-12-07T10:57:41;101493.59;;;6.65;100.00
55301;BME280;58302;51.446;-2.000;2022-12-07T11:00:19;101484.19;;;6.80;100.00
55301;BME280;58302;51.446;-2.000;2022-12-07T11:05:38;101486.19;;;7.30;100.00
55301;BME280;58302;51.446;-2.000;2022-12-07T11:10:55;101486.34;;;7.66;100.00
55301;BME280;58302;51.446;-2.000;2022-12-07T11:13:31;101481.38;;;7.88;100.00
55301;BME280;58302;51.446;-2.000;2022-12-07T11:16:37;101484.91;;;8.32;100.00
55301;BME280;58302;51.446;-2.000;2022-12-07T11:29:47;101420.91;;;8.19;100.00
55301;BME280;58302;51.446;-2.000;2022-12-07T11:32:49;101423.28;;;8.28;100.00
55301;BME280;58302;51.446;-2.000;2022-12-07T11:35:31;101411.19;;;8.49;100.00
55301;BME280;58302;51.446;-2.000;2022-12-07T11:38:16;101389.66;;;8.54;100.00
55301;BME280;58302;51.446;-2.000;2022-12-07T11:40:49;101379.50;;;8.31;100.00
55301;BME280;58302;51.446;-2.000;2022-12-07T11:43:28;101372.41;;;7.56;100.00
55301;BME280;58302;51.446;-2.000;2022-12-07T11:46:07;101380.28;;;7.08;100.00
55301;BME280;58302;51.446;-2.000;2022-12-07T11:48:41;101371.91;;;6.53;100.00
55301;BME280;58302;51.446;-2.000;2022-12-07T11:51:12;101369.84;;;6.10;100.00
55301;BME280;58302;51.446;-2.000;2022-12-07T11:53:46;101365.94;;;5.79;100.00
55301;BME280;58302;51.446;-2.000;2022-12-07T11:56:17;101367.88;;;5.39;100.00
55301;BME280;58302;51.446;-2.000;2022-12-07T12:01:18;101357.47;;;4.83;100.00
55301;BME280;58302;51.446;-2.000;2022-12-07T12:06:38;101354.97;;;4.68;100.00
55301;BME280;58302;51.446;-2.000;2022-12-07T12:14:30;101350.41;;;4.69;100.00
55301;BME280;58302;51.446;-2.000;2022-12-07T12:25:51;101337.03;;;4.28;100.00
55301;BME280;58302;51.446;-2.000;2022-12-07T12:28:40;101337.03;;;4.28;100.00
55301;BME280;58302;51.446;-2.000;2022-12-07T12:44:02;101322.66;;;4.62;100.00
55301;BME280;58302;51.446;-2.000;2022-12-07T12:51:43;101309.75;;;4.37;100.00
55301;BME280;58302;51.446;-2.000;2022-12-07T12:54:18;101321.94;;;4.33;100.00
55301;BME280;58302;51.446;-2.000;2022-12-07T12:59:24;101304.00;;;3.86;100.00
55301;BME280;58302;51.446;-2.000;2022-12-07T13:01:54;101305.22;;;3.83;100.00
55301;BME280;58302;51.446;-2.000;2022-12-07T13:07:12;101291.84;;;3.96;100.00
55301;BME280;58302;51.446;-2.000;2022-12-07T13:09:43;101295.97;;;3.99;100.00
55301;BME280;58302;51.446;-2.000;2022-12-07T13:12:13;101293.69;;;3.96;100.00
55301;BME280;58302;51.446;-2.000;2022-12-07T13:17:09;101287.22;;;3.84;100.00
55301;BME280;58302;51.446;-2.000;2022-12-07T13:24:56;101283.16;;;4.01;100.00
55301;BME280;58302;51.446;-2.000;2022-12-07T13:27:25;101275.72;;;4.10;100.00
55301;BME280;58302;51.446;-2.000;2022-12-07T13:29:53;101267.66;;;4.03;100.00
55301;BME280;58302;51.446;-2.000;2022-12-07T13:32:29;101264.75;;;4.05;100.00
55301;BME280;58302;51.446;-2.000;2022-12-07T13:34:55;101262.91;;;4.12;100.00
55301;BME280;58302;51.446;-2.000;2022-12-07T13:37:27;101259.00;;;4.21;100.00
55301;BME280;58302;51.446;-2.000;2022-12-07T13:40:11;101246.16;;;4.10;100.00
55301;BME280;58302;51.446;-2.000;2022-12-07T13:42:43;101245.03;;;3.84;100.00
55301;BME280;58302;51.446;-2.000;2022-12-07T13:45:24;101237.72;;;3.65;100.00
55301;BME280;58302;51.446;-2.000;2022-12-07T13:48:15;101242.88;;;3.60;100.00
55301;BME280;58302;51.446;-2.000;2022-12-07T13:50:41;101239.31;;;3.53;100.00
55301;BME280;58302;51.446;-2.000;2022-12-07T13:53:13;101238.03;;;3.42;100.00
55301;BME280;58302;51.446;-2.000;2022-12-07T13:55:45;101233.41;;;3.29;100.00
55301;BME280;58302;51.446;-2.000;2022-12-07T13:58:12;101232.88;;;3.12;100.00
55301;BME280;58302;51.446;-2.000;2022-12-07T14:00:40;101229.66;;;2.96;100.00
55301;BME280;58302;51.446;-2.000;2022-12-07T14:05:43;101221.06;;;2.51;100.00
55301;BME280;58302;51.446;-2.000;2022-12-07T14:10:38;101220.13;;;2.16;100.00
55301;BME280;58302;51.446;-2.000;2022-12-07T14:16:00;101231.53;;;1.81;100.00
55301;BME280;58302;51.446;-2.000;2022-12-07T14:23:40;101219.53;;;1.48;100.00
55301;BME280;58302;51.446;-2.000;2022-12-07T14:26:19;101212.47;;;1.40;100.00
55301;BME280;58302;51.446;-2.000;2022-12-07T14:28:46;101209.91;;;1.32;100.00
55301;BME280;58302;51.446;-2.000;2022-12-07T14:31:14;101210.72;;;1.33;100.00
55301;BME280;58302;51.446;-2.000;2022-12-07T14:33:41;101206.19;;;1.33;100.00
55301;BME280;58302;51.446;-2.000;2022-12-07T14:36:14;101203.13;;;1.36;100.00
55301;BME280;58302;51.446;-2.000;2022-12-07T14:38:40;101197.59;;;1.38;100.00
55301;BME280;58302;51.446;-2.000;2022-12-07T14:41:12;101196.94;;;1.36;100.00
55301;BME280;58302;51.446;-2.000;2022-12-07T14:43:58;101203.50;;;1.33;100.00
55301;BME280;58302;51.446;-2.000;2022-12-07T14:46:24;101198.91;;;1.27;100.00
55301;BME280;58302;51.446;-2.000;2022-12-07T14:48:50;101204.16;;;1.20;100.00
55301;BME280;58302;51.446;-2.000;2022-12-07T14:51:16;101202.50;;;1.19;100.00
55301;BME280;58302;51.446;-2.000;2022-12-07T14:53:50;101204.34;;;1.19;100.00
55301;BME280;58302;51.446;-2.000;2022-12-07T14:56:17;101200.19;;;1.16;100.00
55301;BME280;58302;51.446;-2.000;2022-12-07T14:58:43;101199.19;;;1.17;100.00
55301;BME280;58302;51.446;-2.000;2022-12-07T15:01:09;101199.19;;;1.17;100.00
55301;BME280;58302;51.446;-2.000;2022-12-07T15:03:35;101194.84;;;1.16;100.00